Cuyamungue, New Mexico
Current Conditions -  °F | °C
As of 12:53 PM on Thursday 27 Nov 2014 (Local Time) from KSAF Reporting Station
Clear Clear  
Wind Chill: 57°   Ceiling: Unl
Heat Index: 57°   Visibility: 10mi
Dew Point: 21°   Wind: 12mph
Humidity: 25%   Direction: 350°N
Pressure: 30.38"   Gusts: NA
Location:  35.7017°N, 105.921°W
Report Text: KSAF 271953Z 35010KT 10SM CLR 14/M06 A3038 RMK AO2 SLP246 T01391061
Loading
Personal Weather Stations






























Interactive Weather Map New forecast layout! Learn more

10-Day Weather Forecast

Advertisements
Track Severe Weather on mobile